Time;durP1;ratioP1;P1;durP2;ratioP2;P2;SDS_P1;SDS_P2;PMS_P1;PMS_P2;Temp;Humidity;BMP_temperature;BMP_pressure;BME280_temperature;BME280_humidity;BME280_pressure;Samples;Min_cycle;Max_cycle;Signal;HPM_P1;HPM_P2
2021/07/13 00:01:44;;;;;;;1.50;1.40;;;;;;;21.30;71.88;99561.45;1704653;81;21189;-57
2021/07/13 00:04:11;;;;;;;2.85;1.98;;;;;;;21.26;72.00;99566.02;1707740;81;21173;-56
2021/07/13 00:06:37;;;;;;;1.82;1.72;;;;;;;21.23;72.11;99570.40;1707671;81;22799;-57
2021/07/13 00:09:05;;;;;;;2.95;1.87;;;;;;;21.17;72.24;99570.95;1707007;81;22683;-56
2021/07/13 00:11:32;;;;;;;1.77;1.67;;;;;;;21.11;72.52;99574.61;1707170;81;21212;-56
2021/07/13 00:14:00;;;;;;;1.70;1.60;;;;;;;21.07;72.59;99567.72;1706201;81;20986;-56
2021/07/13 00:16:28;;;;;;;2.20;2.10;;;;;;;21.05;72.58;99569.73;1711574;81;20907;-56
2021/07/13 00:18:54;;;;;;;5.25;1.98;;;;;;;21.02;72.58;99575.48;1710793;81;21757;-56
2021/07/13 00:21:20;;;;;;;2.12;1.92;;;;;;;20.98;72.70;99583.64;1711714;81;20939;-56
2021/07/13 00:23:46;;;;;;;2.60;2.40;;;;;;;20.93;72.82;99579.08;1711744;81;20971;-57
2021/07/13 00:26:15;;;;;;;2.55;2.35;;;;;;;20.87;72.90;99583.77;1687936;81;21468;-56
2021/07/13 00:28:41;;;;;;;2.52;2.33;;;;;;;20.83;73.01;99580.97;1705718;81;21443;-56
2021/07/13 00:31:08;;;;;;;2.00;1.87;;;;;;;20.79;73.09;99578.14;1705415;81;21722;-56
2021/07/13 00:33:34;;;;;;;2.40;1.85;;;;;;;20.77;73.13;99580.16;1703687;81;22194;-56
2021/07/13 00:36:01;;;;;;;4.15;1.87;;;;;;;20.75;73.16;99591.27;1705954;81;21078;-56
2021/07/13 00:38:27;;;;;;;2.50;2.30;;;;;;;20.73;73.19;99589.17;1705332;81;21078;-54
2021/07/13 00:40:53;;;;;;;3.25;2.00;;;;;;;20.71;73.18;99595.77;1707663;81;21066;-54
2021/07/13 00:43:19;;;;;;;2.72;2.05;;;;;;;20.67;73.22;99591.61;1706669;81;21132;-53
2021/07/13 00:45:46;;;;;;;3.35;3.05;;;;;;;20.63;73.30;99592.88;1708324;81;21022;-54
2021/07/13 00:48:12;;;;;;;1.82;1.72;;;;;;;20.59;73.33;99591.42;1706992;81;21028;-54
2021/07/13 00:50:43;;;;;;;1.60;1.50;;;;;;;20.54;73.38;99592.36;1710019;81;20923;-54
2021/07/13 00:53:08;;;;;;;7.47;1.85;;;;;;;20.49;73.42;99590.56;1709066;81;21106;-54
2021/07/13 00:55:35;;;;;;;7.12;2.25;;;;;;;20.46;73.47;99588.10;1704031;81;21110;-54
2021/07/13 00:58:04;;;;;;;5.97;2.42;;;;;;;20.43;73.49;99591.10;1714109;80;21073;-56
2021/07/13 01:00:31;;;;;;;2.25;1.70;;;;;;;20.41;73.53;99589.91;1719977;80;21142;-56
2021/07/13 01:03:01;;;;;;;8.25;2.27;;;;;;;20.38;73.48;99584.20;1719958;80;21046;-56
2021/07/13 01:05:40;;;;;;;2.12;1.75;;;;;;;20.38;73.48;99582.84;1724694;80;21097;-56
2021/07/13 01:08:18;;;;;;;2.70;1.92;;;;;;;20.37;73.59;99587.08;1719115;80;22780;-56
2021/07/13 01:10:57;;;;;;;2.10;1.90;;;;;;;20.32;73.41;99580.64;1717610;80;21542;-56
2021/07/13 01:13:34;;;;;;;4.80;1.98;;;;;;;20.28;73.34;99585.14;1719230;80;21430;-56
2021/07/13 01:16:12;;;;;;;3.90;2.10;;;;;;;20.24;73.34;99587.31;1699928;82;21100;-56
2021/07/13 01:18:51;;;;;;;4.78;2.90;;;;;;;20.20;73.55;99581.74;1723685;80;20986;-56
2021/07/13 01:21:43;;;;;;;3.30;1.70;;;;;;;20.18;73.72;99588.34;1665374;82;21133;-56
2021/07/13 01:24:29;;;;;;;2.47;1.55;;;;;;;20.14;73.82;99585.04;1726527;80;20931;-56
2021/07/13 01:27:10;;;;;;;3.12;2.08;;;;;;;20.12;74.00;99590.27;1727068;80;21449;-56
2021/07/13 01:29:38;;;;;;;1.67;1.57;;;;;;;20.10;74.02;99580.84;1722531;80;20997;-56
2021/07/13 01:32:05;;;;;;;2.17;1.98;;;;;;;20.11;73.90;99580.34;1688582;80;21037;-56
2021/07/13 01:34:43;;;;;;;1.95;1.85;;;;;;;20.12;74.00;99579.34;1725357;80;21711;-56
2021/07/13 01:37:10;;;;;;;3.05;2.83;;;;;;;20.11;74.03;99581.70;1722504;80;21349;-56
2021/07/13 01:39:38;;;;;;;4.33;2.33;;;;;;;20.09;74.11;99572.77;1707253;82;21909;-57
2021/07/13 01:42:06;;;;;;;3.22;1.85;;;;;;;20.06;74.13;99568.97;1723519;80;21877;-57
2021/07/13 01:44:33;;;;;;;2.50;2.37;;;;;;;20.03;74.23;99572.84;1724087;80;20938;-57
2021/07/13 01:46:59;;;;;;;2.10;1.72;;;;;;;20.03;74.40;99581.90;1724774;80;20926;-57
2021/07/13 01:49:26;;;;;;;2.05;1.95;;;;;;;20.01;74.31;99574.34;1726776;80;21713;-57
2021/07/13 01:51:52;;;;;;;2.55;2.15;;;;;;;20.00;74.20;99571.73;1648282;83;20943;-57
2021/07/13 01:54:20;;;;;;;2.52;2.42;;;;;;;19.97;74.25;99572.89;1719170;82;21682;-56
2021/07/13 01:56:51;;;;;;;3.30;2.22;;;;;;;19.97;74.37;99582.95;1710563;81;21088;-57
2021/07/13 01:59:18;;;;;;;1.90;1.80;;;;;;;19.96;74.61;99582.09;1722552;80;21150;-58
2021/07/13 02:01:45;;;;;;;2.37;2.20;;;;;;;19.98;74.75;99587.42;1667057;83;21153;-57
2021/07/13 02:04:11;;;;;;;4.08;2.05;;;;;;;19.97;74.67;99590.66;1725896;80;21044;-56
2021/07/13 02:06:37;;;;;;;3.12;2.60;;;;;;;19.98;74.58;99584.69;1681983;82;21076;-57
2021/07/13 02:09:09;;;;;;;2.33;2.22;;;;;;;19.98;74.45;99584.69;1722662;80;21144;-57
2021/07/13 02:11:35;;;;;;;2.90;1.87;;;;;;;19.97;74.53;99584.33;1720113;80;21081;-57
2021/07/13 02:14:03;;;;;;;1.98;1.87;;;;;;;19.95;74.56;99587.19;1718607;80;21080;-57
2021/07/13 02:16:30;;;;;;;2.65;2.45;;;;;;;19.94;74.58;99590.92;1721067;80;21101;-58
2021/07/13 02:18:58;;;;;;;4.58;2.10;;;;;;;19.93;74.65;99591.05;1718677;80;21092;-56
2021/07/13 02:21:24;;;;;;;2.37;2.17;;;;;;;19.93;74.55;99593.78;1723596;80;21069;-58
2021/07/13 02:23:52;;;;;;;2.35;2.17;;;;;;;19.92;74.58;99595.64;1720376;80;21045;-57
2021/07/13 02:26:44;;;;;;;3.15;3.00;;;;;;;19.91;74.77;99593.91;1718347;80;21065;-57
2021/07/13 02:29:29;;;;;;;2.12;2.02;;;;;;;19.93;74.96;99595.14;1665233;83;21064;-57
2021/07/13 02:32:01;;;;;;;3.20;3.00;;;;;;;19.95;75.16;99598.11;1667769;83;21041;-57
2021/07/13 02:34:30;;;;;;;2.90;2.70;;;;;;;19.99;75.30;99598.69;1667772;83;21034;-58
2021/07/13 02:36:58;;;;;;;2.92;2.72;;;;;;;20.01;75.45;99603.52;1683082;82;21826;-56
2021/07/13 02:39:25;;;;;;;2.83;2.22;;;;;;;20.02;75.55;99599.29;1718608;80;21077;-56
2021/07/13 02:41:52;;;;;;;2.33;2.00;;;;;;;20.07;75.62;99607.59;1720920;80;21092;-57
2021/07/13 02:44:19;;;;;;;2.98;2.33;;;;;;;20.10;75.62;99607.30;1721883;80;20930;-57
2021/07/13 02:46:45;;;;;;;1.70;1.60;;;;;;;20.12;75.70;99608.90;1724804;80;20974;-56
2021/07/13 02:49:21;;;;;;;2.25;2.00;;;;;;;20.14;75.74;99599.20;1724411;80;21120;-57
2021/07/13 02:51:50;;;;;;;2.40;2.20;;;;;;;20.15;75.80;99604.53;1721733;80;21058;-57
2021/07/13 02:54:19;;;;;;;2.70;2.15;;;;;;;20.17;75.83;99603.88;1723172;80;21313;-57
2021/07/13 02:56:46;;;;;;;1.65;1.55;;;;;;;20.21;75.92;99607.20;1665710;83;20973;-57
2021/07/13 02:59:13;;;;;;;3.00;1.62;;;;;;;20.25;75.90;99606.77;1718576;80;21100;-58
2021/07/13 03:01:39;;;;;;;2.00;1.55;;;;;;;20.28;75.77;99602.41;1723454;80;21105;-58
2021/07/13 03:04:05;;;;;;;2.30;1.70;;;;;;;20.31;75.61;99607.61;1720462;80;21295;-57
2021/07/13 03:06:32;;;;;;;1.87;1.77;;;;;;;20.32;75.57;99609.34;1723769;80;21058;-57
2021/07/13 03:08:59;;;;;;;2.25;2.05;;;;;;;20.33;75.59;99608.31;1725903;80;20918;-58
2021/07/13 03:11:27;;;;;;;2.47;2.35;;;;;;;20.34;75.73;99614.17;1724440;80;21009;-56
2021/07/13 03:13:54;;;;;;;5.03;2.70;;;;;;;20.37;75.78;99608.44;1725817;80;21579;-58
2021/07/13 03:16:20;;;;;;;2.92;2.75;;;;;;;20.42;75.77;99611.23;1719106;80;21077;-58
2021/07/13 03:18:48;;;;;;;3.87;2.90;;;;;;;20.45;75.75;99617.31;1721538;80;21109;-58
2021/07/13 03:21:22;;;;;;;3.15;2.95;;;;;;;20.49;75.75;99619.27;1720947;80;21103;-57
2021/07/13 03:23:44;;;;;;;3.37;3.27;;;;;;;20.53;75.80;99622.94;1720982;80;21041;-58
2021/07/13 03:26:12;;;;;;;4.30;2.98;;;;;;;20.57;75.71;99624.41;1719106;80;21512;-58
2021/07/13 03:28:38;;;;;;;5.00;3.02;;;;;;;20.60;75.59;99621.87;1718423;80;21108;-58
2021/07/13 03:31:04;;;;;;;3.80;3.60;;;;;;;20.63;75.55;99627.06;1715919;80;21622;-57
2021/07/13 03:33:31;;;;;;;3.52;3.42;;;;;;;20.67;75.37;99628.00;1715909;80;21143;-57
2021/07/13 03:35:58;;;;;;;4.35;4.15;;;;;;;20.70;75.19;99624.99;1719088;80;21098;-57
2021/07/13 03:38:24;;;;;;;4.25;3.77;;;;;;;20.72;75.08;99620.75;1716082;80;21104;-58
2021/07/13 03:40:50;;;;;;;11.22;3.47;;;;;;;20.71;75.04;99618.52;1720289;80;21136;-57
2021/07/13 03:43:17;;;;;;;3.42;3.12;;;;;;;20.74;74.95;99610.55;1717709;80;21081;-58
2021/07/13 03:45:44;;;;;;;2.98;2.72;;;;;;;20.78;74.93;99606.50;1718870;80;21084;-57
2021/07/13 03:48:12;;;;;;;4.58;2.75;;;;;;;20.82;75.02;99596.16;1717715;80;21045;-57
2021/07/13 03:50:38;;;;;;;2.83;2.62;;;;;;;20.88;75.32;99590.10;1721355;80;21772;-57
2021/07/13 03:53:05;;;;;;;3.27;2.42;;;;;;;20.93;75.19;99595.49;1720566;80;21691;-57
2021/07/13 03:55:31;;;;;;;2.27;2.17;;;;;;;20.99;74.98;99593.58;1719629;80;21116;-57
2021/07/13 03:57:58;;;;;;;2.65;2.45;;;;;;;21.06;74.75;99588.39;1718333;80;21168;-57
2021/07/13 04:00:27;;;;;;;3.02;2.70;;;;;;;21.13;74.84;99584.05;1719101;80;21037;-57
2021/07/13 04:02:54;;;;;;;2.08;1.98;;;;;;;21.20;74.69;99589.84;1669856;83;21153;-58
2021/07/13 04:05:20;;;;;;;2.58;2.47;;;;;;;21.29;74.25;99590.34;1727283;80;20883;-58
2021/07/13 04:07:46;;;;;;;2.00;1.90;;;;;;;21.35;74.10;99585.67;1724496;80;20958;-57
2021/07/13 04:10:14;;;;;;;2.40;2.20;;;;;;;21.43;73.96;99590.77;1727077;80;20911;-58
2021/07/13 04:12:43;;;;;;;1.87;1.77;;;;;;;21.53;73.71;99597.58;1723440;80;20879;-57
2021/07/13 04:15:11;;;;;;;3.40;2.50;;;;;;;21.61;73.41;99594.95;1725778;80;21809;-57
2021/07/13 04:17:38;;;;;;;17.92;3.75;;;;;;;21.70;73.17;99597.31;1726386;80;21024;-57
2021/07/13 04:20:06;;;;;;;16.77;2.72;;;;;;;21.79;72.81;99601.91;1725232;80;21025;-57
2021/07/13 04:22:34;;;;;;;2.50;2.27;;;;;;;21.88;72.48;99607.36;1724298;80;21054;-57
2021/07/13 04:25:02;;;;;;;4.65;2.60;;;;;;;21.98;72.00;99609.23;1724335;80;20978;-57
2021/07/13 04:27:30;;;;;;;2.95;1.65;;;;;;;22.05;71.69;99603.52;1724916;80;21085;-57
2021/07/13 04:29:56;;;;;;;3.85;1.82;;;;;;;22.12;70.94;99610.11;1724412;80;20996;-57
2021/07/13 04:32:23;;;;;;;1.55;1.45;;;;;;;22.16;70.29;99606.94;1725341;80;20922;-57
2021/07/13 04:34:50;;;;;;;1.90;1.35;;;;;;;22.21;69.94;99614.69;1721856;80;20946;-57
2021/07/13 04:37:17;;;;;;;1.35;1.25;;;;;;;22.28;69.82;99612.23;1726356;80;21512;-57
2021/07/13 04:39:43;;;;;;;1.47;1.37;;;;;;;22.35;69.71;99610.61;1723639;80;21081;-57
2021/07/13 04:42:09;;;;;;;3.62;1.75;;;;;;;22.42;69.54;99608.97;1730971;80;20926;-56
2021/07/13 04:44:36;;;;;;;3.65;2.10;;;;;;;22.49;69.07;99609.58;1733107;80;21369;-57
2021/07/13 04:47:03;;;;;;;2.42;1.57;;;;;;;22.59;68.83;99613.64;1726477;80;20888;-58
2021/07/13 04:49:31;;;;;;;1.82;1.50;;;;;;;22.67;68.92;99615.11;1729062;80;20918;-58
2021/07/13 04:51:59;;;;;;;2.15;1.40;;;;;;;22.76;68.77;99612.84;1731177;80;21146;-57
2021/07/13 04:54:26;;;;;;;1.50;1.40;;;;;;;22.86;68.00;99611.41;1726716;80;20918;-58
2021/07/13 04:56:53;;;;;;;1.55;1.45;;;;;;;22.95;67.71;99607.22;1722133;80;21282;-59
2021/07/13 04:59:19;;;;;;;2.85;1.10;;;;;;;23.06;67.36;99602.49;1709832;80;21570;-57
2021/07/13 05:01:45;;;;;;;2.90;1.10;;;;;;;23.16;66.67;99600.53;1708839;81;21079;-57
2021/07/13 05:04:13;;;;;;;1.27;1.17;;;;;;;23.26;66.17;99598.58;1708798;81;21112;-58
2021/07/13 05:06:40;;;;;;;3.45;0.90;;;;;;;23.37;65.71;99599.20;1708349;81;21126;-58
2021/07/13 05:09:07;;;;;;;1.90;1.17;;;;;;;23.48;64.95;99601.35;1709130;81;21034;-58
2021/07/13 05:11:35;;;;;;;1.10;1.00;;;;;;;23.58;64.64;99593.37;1708619;81;21097;-58
2021/07/13 05:14:02;;;;;;;7.55;1.57;;;;;;;23.67;64.31;99593.78;1712712;81;21117;-58
2021/07/13 05:16:30;;;;;;;1.00;1.00;;;;;;;23.76;63.54;99583.70;1720484;81;21197;-58
2021/07/13 05:18:59;;;;;;;1.50;1.10;;;;;;;23.85;63.09;99582.73;1708662;81;21062;-58
2021/07/13 05:21:25;;;;;;;0.98;0.93;;;;;;;23.92;62.90;99580.19;1706208;82;21081;-59
2021/07/13 05:23:53;;;;;;;2.42;1.02;;;;;;;23.98;62.70;99578.19;1713812;81;21129;-58
2021/07/13 05:26:19;;;;;;;1.45;0.98;;;;;;;24.04;63.07;99585.27;1709432;81;21046;-56
2021/07/13 05:28:49;;;;;;;1.30;0.90;;;;;;;24.13;62.92;99580.66;1715945;81;22123;-58
2021/07/13 05:31:15;;;;;;;2.45;0.90;;;;;;;24.19;62.70;99583.26;1708597;81;21471;-59
2021/07/13 05:33:41;;;;;;;1.20;1.10;;;;;;;24.24;61.28;99583.68;1711733;81;21093;-57
2021/07/13 05:36:08;;;;;;;0.85;0.85;;;;;;;24.31;61.32;99587.48;1712557;81;21018;-58
2021/07/13 05:38:34;;;;;;;1.22;0.85;;;;;;;24.37;61.31;99584.92;1708754;81;22134;-57
2021/07/13 05:41:01;;;;;;;0.90;0.90;;;;;;;24.46;60.89;99590.81;1698051;82;21571;-58
2021/07/13 05:43:27;;;;;;;1.72;0.90;;;;;;;24.53;61.19;99592.38;1714959;81;21090;-57
2021/07/13 05:45:54;;;;;;;2.60;1.00;;;;;;;24.61;60.88;99599.28;1706654;81;21078;-58
2021/07/13 05:48:20;;;;;;;1.57;0.88;;;;;;;24.67;60.24;99594.47;1709310;81;21066;-58
2021/07/13 05:50:47;;;;;;;1.72;0.88;;;;;;;24.73;60.06;99597.09;1703568;81;21042;-58
2021/07/13 05:53:14;;;;;;;1.12;1.02;;;;;;;24.78;59.77;99596.92;1703289;81;21096;-58
2021/07/13 05:55:40;;;;;;;2.00;0.90;;;;;;;24.83;59.38;99598.67;1707344;81;21128;-57
2021/07/13 05:58:07;;;;;;;1.17;0.80;;;;;;;24.88;59.74;99600.91;1703274;81;22343;-59
2021/07/13 06:00:33;;;;;;;0.80;0.80;;;;;;;24.94;59.76;99596.64;1712692;80;21152;-57
2021/07/13 06:02:59;;;;;;;0.80;0.80;;;;;;;24.99;58.97;99601.14;1712983;80;21183;-57
2021/07/13 06:05:26;;;;;;;1.10;1.00;;;;;;;25.03;58.52;99595.63;1714362;80;21086;-56
2021/07/13 06:07:52;;;;;;;3.62;0.90;;;;;;;25.03;58.44;99596.48;1717927;80;21026;-58
2021/07/13 06:10:19;;;;;;;1.77;0.90;;;;;;;25.04;58.51;99591.84;1719989;80;20922;-58
2021/07/13 06:12:46;;;;;;;0.80;0.80;;;;;;;25.06;57.96;99597.53;1716230;80;20962;-57
2021/07/13 06:15:15;;;;;;;1.70;0.80;;;;;;;25.12;58.34;99598.73;1715604;80;20955;-58
2021/07/13 06:17:42;;;;;;;3.52;0.78;;;;;;;25.18;57.72;99592.53;1718903;80;22427;-59
2021/07/13 06:20:11;;;;;;;1.42;0.80;;;;;;;25.24;57.86;99598.25;1722350;80;20939;-58
2021/07/13 06:22:37;;;;;;;1.27;0.90;;;;;;;25.30;58.17;99593.07;1715617;80;20982;-58
2021/07/13 06:25:05;;;;;;;0.88;0.80;;;;;;;25.37;58.04;99597.72;1716155;80;20995;-59
2021/07/13 06:27:31;;;;;;;2.30;0.90;;;;;;;25.45;57.75;99598.23;1719924;82;20992;-58
2021/07/13 06:29:58;;;;;;;1.15;0.80;;;;;;;25.50;57.38;99595.32;1718648;80;21036;-56
2021/07/13 06:32:24;;;;;;;1.00;0.82;;;;;;;25.58;57.31;99590.31;1717925;80;20982;-59
2021/07/13 06:34:51;;;;;;;0.80;0.70;;;;;;;25.62;56.82;99588.95;1714460;80;21678;-57
2021/07/13 06:37:17;;;;;;;2.45;0.85;;;;;;;25.66;57.35;99583.45;1711933;80;21132;-57
2021/07/13 06:39:43;;;;;;;1.85;0.90;;;;;;;25.69;56.65;99584.45;1718141;80;21077;-59
2021/07/13 06:42:10;;;;;;;2.52;1.00;;;;;;;25.71;56.56;99593.94;1717569;80;21128;-58
2021/07/13 06:44:36;;;;;;;2.62;0.80;;;;;;;25.74;56.37;99592.22;1661285;84;21629;-58
2021/07/13 06:47:03;;;;;;;1.15;0.90;;;;;;;25.73;56.31;99595.49;1667209;83;20994;-58
2021/07/13 06:49:30;;;;;;;2.00;0.90;;;;;;;25.77;57.07;99602.39;1665938;83;21591;-59
2021/07/13 06:51:56;;;;;;;1.00;0.90;;;;;;;25.81;56.56;99601.51;1668807;83;21609;-58
2021/07/13 06:54:22;;;;;;;3.08;1.17;;;;;;;25.85;56.26;99595.48;1671603;83;21180;-58
2021/07/13 06:56:49;;;;;;;1.85;0.90;;;;;;;25.91;56.44;99598.05;1670249;83;21090;-57
2021/07/13 06:59:15;;;;;;;1.20;1.00;;;;;;;25.99;57.05;99598.03;1720627;80;21054;-57
2021/07/13 07:01:42;;;;;;;1.55;1.00;;;;;;;26.08;57.07;99598.35;1715132;81;21141;-57
2021/07/13 07:04:09;;;;;;;1.00;1.00;;;;;;;26.17;56.10;99593.67;1713324;81;21040;-56
2021/07/13 07:06:35;;;;;;;3.35;1.15;;;;;;;26.25;56.20;99587.61;1716674;82;21789;-56
2021/07/13 07:09:02;;;;;;;1.10;1.00;;;;;;;26.29;55.13;99587.61;1711327;81;21037;-56
2021/07/13 07:11:29;;;;;;;1.90;1.10;;;;;;;26.30;55.21;99582.95;1708238;81;21049;-58
2021/07/13 07:13:55;;;;;;;1.37;1.10;;;;;;;26.32;55.18;99590.54;1708191;81;21200;-58
2021/07/13 07:16:22;;;;;;;1.32;1.22;;;;;;;26.34;55.32;99592.61;1706978;81;21046;-57
2021/07/13 07:18:50;;;;;;;3.05;1.10;;;;;;;26.37;55.48;99597.23;1703792;81;21011;-57
2021/07/13 07:21:16;;;;;;;1.98;1.10;;;;;;;26.45;56.10;99599.64;1702286;81;21672;-59
2021/07/13 07:23:42;;;;;;;1.00;1.00;;;;;;;26.48;56.62;99590.47;1705290;81;21057;-58
2021/07/13 07:26:09;;;;;;;1.30;1.20;;;;;;;26.51;55.93;99598.92;1706432;81;21042;-58
2021/07/13 07:28:37;;;;;;;2.75;1.20;;;;;;;26.55;56.45;99597.50;1707099;81;21046;-58
2021/07/13 07:31:03;;;;;;;1.10;1.00;;;;;;;26.61;56.75;99589.91;1708060;81;21125;-58
2021/07/13 07:33:30;;;;;;;5.00;1.17;;;;;;;26.67;56.46;99589.17;1705545;81;21101;-60
2021/07/13 07:35:57;;;;;;;1.30;1.20;;;;;;;26.73;55.54;99600.34;1705827;81;21093;-58
2021/07/13 07:38:24;;;;;;;1.30;1.00;;;;;;;26.80;55.98;99593.57;1709647;81;20918;-60
2021/07/13 07:40:50;;;;;;;5.28;1.57;;;;;;;26.91;55.34;99597.34;1711420;81;21093;-59
2021/07/13 07:43:17;;;;;;;7.37;1.65;;;;;;;27.02;55.70;99590.03;1651542;84;21201;-57
2021/07/13 07:45:44;;;;;;;1.37;1.27;;;;;;;27.18;55.24;99592.33;1667984;83;21138;-59
2021/07/13 07:48:10;;;;;;;2.83;1.40;;;;;;;27.28;54.39;99587.42;1671431;83;21436;-59
2021/07/13 07:50:37;;;;;;;2.52;1.30;;;;;;;27.33;53.77;99584.43;1665830;83;21919;-58
2021/07/13 07:53:03;;;;;;;4.70;1.25;;;;;;;27.38;53.59;99588.91;1674622;83;21516;-58
2021/07/13 07:55:31;;;;;;;1.90;1.17;;;;;;;27.43;53.84;99581.42;1668309;83;21130;-58
2021/07/13 07:57:58;;;;;;;2.08;1.10;;;;;;;27.45;53.56;99583.48;1666902;83;21086;-59
2021/07/13 08:00:25;;;;;;;2.70;1.35;;;;;;;27.47;52.91;99584.16;1671597;83;21085;-59
2021/07/13 08:02:52;;;;;;;1.90;1.07;;;;;;;27.50;53.07;99583.77;1658306;83;21205;-58
2021/07/13 08:05:18;;;;;;;2.55;1.30;;;;;;;27.54;53.13;99578.25;1651579;84;21174;-58
2021/07/13 08:07:46;;;;;;;1.72;1.05;;;;;;;27.57;53.05;99574.23;1663085;83;21123;-60
2021/07/13 08:10:13;;;;;;;1.50;1.40;;;;;;;27.58;52.64;99572.67;1673266;83;21154;-59
2021/07/13 08:12:42;;;;;;;1.35;1.22;;;;;;;27.58;52.14;99576.81;1650400;84;21160;-56
2021/07/13 08:15:09;;;;;;;1.20;1.10;;;;;;;27.59;51.32;99570.77;1674017;83;21476;-56
2021/07/13 08:17:36;;;;;;;1.55;1.12;;;;;;;27.59;51.51;99563.33;1669524;83;21120;-59
2021/07/13 08:20:05;;;;;;;1.70;1.00;;;;;;;27.61;50.82;99565.91;1669918;83;21126;-59
2021/07/13 08:22:33;;;;;;;6.50;1.30;;;;;;;27.64;51.18;99566.94;1673206;83;21041;-59
2021/07/13 08:25:01;;;;;;;3.02;1.10;;;;;;;27.68;51.03;99574.65;1670812;83;21603;-59
2021/07/13 08:27:29;;;;;;;0.93;0.93;;;;;;;27.75;50.86;99573.37;1672254;83;21932;-60
2021/07/13 08:29:57;;;;;;;2.77;1.07;;;;;;;27.82;50.65;99578.48;1672244;83;21129;-58
2021/07/13 08:32:23;;;;;;;1.20;1.00;;;;;;;27.91;50.55;99572.34;1674212;83;21387;-58
2021/07/13 08:34:49;;;;;;;2.20;1.00;;;;;;;27.96;50.07;99576.27;1670344;83;21508;-58
2021/07/13 08:37:19;;;;;;;1.32;1.07;;;;;;;27.99;50.04;99577.25;1672963;83;21172;-58
2021/07/13 08:39:46;;;;;;;1.25;1.17;;;;;;;28.04;50.39;99579.47;1667189;83;21160;-58
2021/07/13 08:42:12;;;;;;;1.80;1.10;;;;;;;28.06;50.05;99576.00;1671276;83;21097;-58
2021/07/13 08:44:38;;;;;;;1.45;1.00;;;;;;;28.04;49.66;99578.09;1668662;83;21464;-59
2021/07/13 08:47:04;;;;;;;1.12;1.07;;;;;;;28.03;49.48;99577.75;1671783;83;22333;-57
2021/07/13 08:49:31;;;;;;;1.05;0.98;;;;;;;28.09;50.12;99581.13;1669716;83;21101;-58
2021/07/13 08:51:57;;;;;;;4.30;1.45;;;;;;;28.17;50.34;99583.31;1676086;83;21066;-56
2021/07/13 08:54:23;;;;;;;1.10;1.00;;;;;;;28.27;50.32;99587.18;1670825;83;21328;-58
2021/07/13 08:56:50;;;;;;;4.90;1.00;;;;;;;28.38;50.14;99581.69;1669323;83;21687;-59
2021/07/13 08:59:16;;;;;;;2.75;1.40;;;;;;;28.47;49.60;99585.55;1671363;83;21104;-60
2021/07/13 09:01:42;;;;;;;5.22;1.20;;;;;;;28.55;49.74;99585.45;1691678;83;21505;-55
2021/07/13 09:04:09;;;;;;;1.37;0.98;;;;;;;28.61;50.50;99581.03;1675890;83;21669;-58
2021/07/13 09:06:53;;;;;;;1.40;1.00;;;;;;;28.69;49.24;99582.30;1694724;82;21710;-57
2021/07/13 09:09:30;;;;;;;;;;;;;;;28.76;49.44;99583.77;1699334;82;21099;-58
2021/07/13 09:14:49;;;;;;;1.17;1.00;;;;;;;28.89;48.22;99577.05;1772573;78;22625;-56
2021/07/13 09:17:29;;;;;;;1.00;1.00;;;;;;;28.84;47.54;99576.75;1732644;80;21036;-57
2021/07/13 09:20:05;;;;;;;2.17;1.37;;;;;;;28.72;47.89;99569.47;1732556;80;21135;-57
2021/07/13 09:22:37;;;;;;;3.55;1.45;;;;;;;28.68;48.99;99575.57;1700082;81;23112;-55
2021/07/13 09:25:23;;;;;;;4.17;1.00;;;;;;;28.64;47.94;99572.34;1702856;81;20961;-58
2021/07/13 09:28:14;;;;;;;1.22;1.12;;;;;;;28.58;48.32;99568.42;1706407;81;20957;-56
2021/07/13 09:30:48;;;;;;;1.25;1.00;;;;;;;28.61;49.45;99568.05;1689164;82;20903;-54
2021/07/13 09:33:27;;;;;;;1.72;1.30;;;;;;;28.70;49.17;99579.02;1696936;82;21180;-56
2021/07/13 09:36:06;;;;;;;1.55;1.45;;;;;;;28.78;48.99;99570.62;1699505;82;20924;-57
2021/07/13 09:38:55;;;;;;;1.67;1.25;;;;;;;28.80;48.96;99567.99;1693854;82;21082;-57
2021/07/13 09:41:30;;;;;;;2.65;1.40;;;;;;;28.84;48.62;99572.59;1703386;81;21397;-55
2021/07/13 09:44:04;;;;;;;1.12;1.12;;;;;;;28.88;48.11;99572.03;1710789;82;20969;-57
2021/07/13 09:46:44;;;;;;;1.40;1.30;;;;;;;28.93;48.30;99576.97;1716818;82;21378;-56
2021/07/13 09:49:22;;;;;;;2.17;1.20;;;;;;;29.00;48.14;99572.91;1668546;83;21515;-57
2021/07/13 09:52:04;;;;;;;3.17;1.20;;;;;;;29.03;48.32;99570.59;1682120;82;21947;-58
2021/07/13 09:54:44;;;;;;;1.20;1.10;;;;;;;29.04;48.26;99570.06;1687096;82;21009;-57
2021/07/13 09:57:23;;;;;;;2.75;1.05;;;;;;;29.03;48.49;99567.81;1684254;82;20994;-57
2021/07/13 09:59:52;;;;;;;2.17;1.20;;;;;;;29.09;48.19;99571.20;1684676;82;21102;-58
2021/07/13 10:02:23;;;;;;;1.45;1.30;;;;;;;29.15;47.89;99565.39;1684281;82;20958;-56
2021/07/13 10:04:50;;;;;;;1.30;1.10;;;;;;;29.19;48.26;99564.78;1684313;82;20981;-57
2021/07/13 10:07:20;;;;;;;1.65;1.07;;;;;;;29.27;48.48;99566.56;1685855;82;21013;-56
2021/07/13 10:09:49;;;;;;;2.95;1.07;;;;;;;29.34;47.20;99566.13;1683952;82;21401;-58
2021/07/13 10:12:18;;;;;;;3.55;1.27;;;;;;;29.37;46.97;99568.51;1684169;82;21132;-57
2021/07/13 10:14:47;;;;;;;1.30;1.00;;;;;;;29.45;47.06;99569.75;1676239;83;20887;-57
2021/07/13 10:17:15;;;;;;;1.85;1.10;;;;;;;29.50;46.94;99568.64;1671065;83;21281;-57
2021/07/13 10:19:49;;;;;;;1.30;1.20;;;;;;;29.57;46.34;99566.78;1711966;81;21257;-57
2021/07/13 10:22:16;;;;;;;2.15;1.00;;;;;;;29.60;45.76;99569.70;1712594;81;20942;-56
2021/07/13 10:24:44;;;;;;;1.60;1.05;;;;;;;29.60;46.17;99561.38;1713321;81;21509;-57
2021/07/13 10:27:28;;;;;;;1.07;1.00;;;;;;;29.59;46.32;99570.22;1710208;81;22097;-57
2021/07/13 10:30:02;;;;;;;5.47;1.32;;;;;;;29.64;46.54;99564.05;1711223;81;20892;-57
2021/07/13 10:32:31;;;;;;;1.27;1.17;;;;;;;29.71;45.24;99560.80;1685686;81;20959;-59
2021/07/13 10:35:01;;;;;;;2.87;1.00;;;;;;;29.76;45.51;99558.83;1711636;81;22015;-58
2021/07/13 10:37:42;;;;;;;2.25;1.00;;;;;;;29.80;46.09;99553.19;1708349;81;21063;-58
2021/07/13 10:40:27;;;;;;;1.82;1.15;;;;;;;29.86;45.14;99557.39;1670339;83;21073;-57
2021/07/13 10:43:03;;;;;;;1.17;1.10;;;;;;;29.92;45.19;99559.37;1671166;83;21188;-57
2021/07/13 10:45:42;;;;;;;1.20;1.10;;;;;;;29.98;45.03;99557.20;1668417;83;21110;-57
2021/07/13 10:48:20;;;;;;;1.20;1.10;;;;;;;30.01;45.08;99551.78;1666671;83;21082;-59
2021/07/13 10:51:03;;;;;;;1.87;1.12;;;;;;;30.04;44.35;99556.38;1664574;83;21172;-57
2021/07/13 10:53:40;;;;;;;1.10;1.05;;;;;;;30.08;44.54;99555.45;1666395;83;21156;-59
2021/07/13 10:56:29;;;;;;;1.30;0.90;;;;;;;30.12;45.26;99548.94;1667187;83;21108;-57
2021/07/13 10:58:57;;;;;;;2.27;0.90;;;;;;;30.18;44.67;99543.98;1670906;83;21002;-57
2021/07/13 11:01:27;;;;;;;1.32;1.07;;;;;;;30.22;43.40;99546.13;1672738;83;20962;-58
2021/07/13 11:03:57;;;;;;;0.95;0.90;;;;;;;30.26;43.24;99543.81;1673943;83;21087;-57
2021/07/13 11:06:41;;;;;;;2.65;1.00;;;;;;;30.28;43.44;99556.97;1668647;83;21049;-57
2021/07/13 11:09:21;;;;;;;3.30;1.10;;;;;;;30.32;43.60;99544.37;1667604;83;21113;-58
2021/07/13 11:11:47;;;;;;;1.85;1.30;;;;;;;30.36;44.65;99546.55;1667960;83;21512;-57
2021/07/13 11:14:15;;;;;;;2.40;1.00;;;;;;;30.39;43.87;99548.03;1668939;83;21080;-57
2021/07/13 11:16:44;;;;;;;1.17;1.07;;;;;;;30.37;42.88;99549.62;1654477;83;21579;-58
2021/07/13 11:19:16;;;;;;;1.02;1.00;;;;;;;30.34;42.42;99541.72;1655926;83;21370;-58
2021/07/13 11:21:50;;;;;;;1.60;1.00;;;;;;;30.29;42.41;99545.63;1654862;83;21003;-57
2021/07/13 11:24:21;;;;;;;9.50;1.30;;;;;;;30.30;43.15;99543.70;1653988;83;21503;-57
2021/07/13 11:26:55;;;;;;;2.67;1.25;;;;;;;30.31;43.13;99545.42;1676026;83;20915;-57
2021/07/13 11:29:25;;;;;;;5.08;1.00;;;;;;;30.34;42.81;99545.03;1685076;82;21115;-58
2021/07/13 11:31:58;;;;;;;1.77;1.00;;;;;;;30.37;42.57;99550.14;1673693;83;21188;-57
2021/07/13 11:34:26;;;;;;;0.98;0.90;;;;;;;30.39;42.74;99548.03;1654926;83;21102;-57
2021/07/13 11:36:54;;;;;;;2.75;1.10;;;;;;;30.41;42.57;99544.52;1656315;83;21203;-57
2021/07/13 11:39:29;;;;;;;1.00;0.90;;;;;;;30.42;42.85;99540.16;1682005;82;21463;-56
2021/07/13 11:41:57;;;;;;;5.12;1.00;;;;;;;30.45;42.28;99538.33;1672993;83;21153;-56
2021/07/13 11:44:25;;;;;;;2.55;0.93;;;;;;;30.44;43.25;99540.81;1689065;82;21088;-55
2021/07/13 11:46:52;;;;;;;2.77;0.90;;;;;;;30.43;42.72;99542.41;1672872;83;21124;-57